Data for 08/18/2018

Time Sea-Level Adjusted Pressure Absolute Pressure Temperature Relative Humidity Dew Point   
(mb) (inHg) (mb) (inHg) (C) (F) (%) (C) (F)
00:05 1024 30.24 853 25.19 19.1 66.4 44 6.7 44.1
00:10 1024 30.24 853 25.19 19.1 66.4 43 6.5 43.8
00:15 1024 30.24 853 25.19 19.1 66.4 43 6.5 43.7
00:20 1024 30.24 853 25.19 19.2 66.5 43 6.4 43.5
00:25 1024 30.24 853 25.19 19.2 66.6 43 6.3 43.4
00:30 1024 30.24 853 25.19 19.2 66.6 43 6.5 43.7
00:35 1024 30.24 853 25.19 19.1 66.3 44 6.8 44.2
00:40 1024 30.24 853 25.19 18.9 66.1 44 6.6 43.9
00:45 1024 30.24 853 25.19 18.9 65.9 44 6.5 43.7
00:50 1023 30.21 853 25.19 18.8 65.8 45 6.8 44.2
00:55 1023 30.21 853 25.19 18.8 65.8 44 6.5 43.6
01:00 1023 30.21 853 25.19 18.9 66 44 6.5 43.7
01:05 1023 30.21 853 25.19 18.8 65.8 44 6.5 43.7
01:10 1024 30.24 853 25.19 18.8 65.8 43 6.2 43.1
01:15 1024 30.24 853 25.19 19 66.2 42 6 42.7
01:20 1024 30.24 853 25.19 19.3 66.7 41 5.8 42.5
01:25 1024 30.24 853 25.19 19.2 66.6 43 6.5 43.7
01:30 1024 30.24 853 25.19 18.8 65.9 43 6.2 43.2
01:35 1024 30.24 853 25.19 18.8 65.8 43 6.1 42.9
01:40 1023 30.21 853 25.19 18.9 66 43 6.2 43.1
01:45 1023 30.21 853 25.19 18.8 65.8 44 6.3 43.3
01:50 1023 30.21 853 25.19 18.7 65.6 44 6.2 43.1
01:55 1023 30.21 853 25.19 18.8 65.9 42 5.9 42.6
02:00 1023 30.21 852 25.16 18.9 66.1 42 5.8 42.5
02:05 1023 30.21 852 25.16 19.1 66.3 42 5.8 42.5
02:10 1023 30.21 852 25.16 19 66.2 43 6.2 43.2
02:15 1023 30.21 852 25.16 18.8 65.9 43 6.2 43.1
02:20 1023 30.21 852 25.16 18.7 65.6 45 6.5 43.7
02:25 1023 30.21 852 25.16 18.4 65.2 46 6.6 43.8
02:30 1023 30.21 852 25.16 18.3 65 49 7.5 45.5
02:35 1023 30.21 852 25.16 18 64.5 48 7 44.5
02:40 1023 30.21 853 25.19 18.2 64.7 46 6.6 43.8
02:45 1023 30.21 853 25.19 18.2 64.8 50 7.6 45.7
02:50 1023 30.21 853 25.19 18 64.3 50 7.5 45.4
02:55 1023 30.21 853 25.19 17.8 64 50 7.2 45
03:00 1023 30.21 853 25.19 17.8 64 51 7.6 45.6
03:05 1024 30.24 853 25.19 17.7 63.8 51 7.4 45.3
03:10 1024 30.24 853 25.19 17.6 63.7 51 7.6 45.7
03:15 1024 30.24 853 25.19 17.6 63.7 50 7.3 45.1
03:20 1024 30.24 853 25.19 17.7 63.9 52 7.8 46.1
03:25 1024 30.24 853 25.19 17.7 63.9 52 7.7 45.9
03:30 1024 30.24 853 25.19 17.8 64 52 7.9 46.2
03:35 1024 30.24 853 25.19 17.8 64 54 8.4 47.2
03:40 1024 30.24 853 25.19 17.7 63.8 54 8.4 47
03:45 1024 30.24 853 25.19 17.4 63.2 56 8.6 47.5
03:50 1024 30.24 853 25.19 17.4 63.3 54 8 46.4
03:55 1024 30.24 853 25.19 17.6 63.7 52 7.7 45.8
04:00 1024 30.24 853 25.19 17.5 63.6 53 7.9 46.1
04:05 1024 30.24 853 25.19 17.3 63.2 53 7.8 46.1
04:10 1024 30.24 854 25.22 17.2 62.9 54 7.9 46.2
04:15 1024 30.24 854 25.22 17 62.6 55 8 46.3
04:20 1025 30.27 854 25.22 16.8 62.2 59 8.7 47.7
04:25 1025 30.27 854 25.22 16.5 61.7 58 8.3 47
04:30 1025 30.27 854 25.22 16.4 61.6 58 8.2 46.7
04:35 1025 30.27 854 25.22 16.5 61.7 58 8.2 46.8
04:40 1025 30.27 854 25.22 16.4 61.5 58 8.3 46.9
04:45 1025 30.27 854 25.22 16.4 61.4 58 8.2 46.8
04:50 1025 30.27 854 25.22 16.3 61.3 59 8.3 46.9
04:55 1025 30.27 854 25.22 16.3 61.3 59 8.2 46.8
05:00 1025 30.27 854 25.22 16.3 61.3 58 8.1 46.6
05:05 1025 30.27 854 25.22 16.2 61.1 59 8.4 47
05:10 1025 30.27 854 25.22 16.1 60.9 60 8.4 47.2
05:15 1025 30.27 854 25.22 15.9 60.6 61 8.4 47.1
05:20 1025 30.27 854 25.22 15.8 60.4 61 8.4 47
05:25 1025 30.27 854 25.22 15.8 60.4 61 8.4 47.2
05:30 1025 30.27 854 25.22 15.8 60.4 62 8.5 47.3
05:35 1025 30.27 854 25.22 15.6 60 62 8.5 47.2
05:40 1025 30.27 854 25.22 15.6 60.1 61 8.2 46.7
05:45 1025 30.27 854 25.22 15.8 60.4 60 8 46.4
05:50 1025 30.27 854 25.22 15.8 60.5 60 8.2 46.7
05:55 1025 30.27 854 25.22 15.7 60.3 61 8.2 46.8
06:00 1024 30.24 854 25.22 15.7 60.2 60 8 46.3
06:05 1024 30.24 854 25.22 15.8 60.4 59 7.8 46.1
06:10 1024 30.24 854 25.22 15.9 60.6 59 7.9 46.2
06:15 1024 30.24 853 25.19 15.8 60.5 58 7.8 46
06:20 1024 30.24 853 25.19 15.8 60.4 58 7.6 45.6
06:25 1024 30.24 853 25.19 15.9 60.5 58 7.7 45.9
06:30 1024 30.24 853 25.19 15.6 60.1 60 7.9 46.2
06:35 1024 30.24 854 25.22 15.4 59.6 60 7.8 46
06:40 1024 30.24 854 25.22 15.3 59.5 60 7.6 45.7
06:45 1024 30.24 854 25.22 15.3 59.6 60 7.6 45.7
06:50 1024 30.24 854 25.22 15.2 59.4 61 7.8 46
06:55 1024 30.24 854 25.22 15.1 59.1 62 7.8 46.1
07:00 1024 30.24 854 25.22 14.7 58.5 63 7.8 46
07:05 1024 30.24 854 25.22 14.4 58 63 7.6 45.8
07:10 1024 30.24 854 25.22 14.3 57.8 64 7.6 45.6
07:15 1024 30.24 854 25.22 14.3 57.7 64 7.6 45.6
07:20 1025 30.27 854 25.22 14.2 57.5 66 7.9 46.2
07:25 1025 30.27 854 25.22 14 57.1 67 8 46.5
07:30 1025 30.27 854 25.22 13.8 56.9 67 7.8 46.1
07:35 1025 30.27 854 25.22 13.8 56.8 67 7.9 46.3
07:40 1025 30.27 854 25.22 13.8 56.8 65 7.5 45.4
07:45 1025 30.27 854 25.22 14.1 57.4 65 7.6 45.7
07:50 1025 30.27 854 25.22 14.4 58 64 7.8 46.1
07:55 1025 30.27 854 25.22 14.6 58.2 63 7.6 45.7
08:00 1025 30.27 854 25.22 14.7 58.4 65 8.1 46.7
08:05 1025 30.27 854 25.22 14.7 58.5 64 8 46.4
08:10 1025 30.27 854 25.22 14.8 58.6 64 8.2 46.7
08:15 1025 30.27 854 25.22 14.7 58.5 64 7.9 46.3
08:20 1025 30.27 854 25.22 14.7 58.5 62 7.7 45.8
08:25 1025 30.27 854 25.22 14.8 58.7 63 8 46.4
08:30 1025 30.27 854 25.22 15.4 59.8 59 7.5 45.5
08:35 1025 30.27 854 25.22 15.9 60.7 58 7.8 46.1
08:40 1025 30.27 854 25.22 16 60.8 59 8.1 46.5
08:45 1025 30.27 854 25.22 16 60.8 60 8.2 46.8
08:50 1025 30.27 854 25.22 16.2 61.2 59 8.3 46.9
08:55 1025 30.27 854 25.22 16.6 61.9 57 8.2 46.8
09:00 1025 30.27 854 25.22 17 62.6 57 8.4 47.1
09:05 1025 30.27 854 25.22 17.2 62.9 55 8.3 46.9
09:10 1025 30.27 854 25.22 16.8 62.3 57 8.3 46.9
09:15 1025 30.27 854 25.22 16.8 62.2 56 7.9 46.3
09:20 1025 30.27 854 25.22 17.5 63.6 53 8 46.4
09:25 1025 30.27 854 25.22 17.4 63.3 54 8.2 46.7
09:30 1025 30.27 854 25.22 17.3 63.2 53 7.8 46
09:35 1025 30.27 854 25.22 18 64.5 52 8 46.5
09:40 1025 30.27 855 25.25 17.7 63.9 51 7.6 45.8
09:45 1025 30.27 855 25.25 17.9 64.2 51 7.6 45.7
09:50 1025 30.27 855 25.25 18.1 64.5 51 7.9 46.2
09:55 1025 30.27 855 25.25 18.2 64.7 50 7.7 45.8
10:00 1025 30.27 855 25.25 18.8 65.8 48 7.7 45.8
10:05 1025 30.27 855 25.25 19.1 66.3 48 7.9 46.2
10:10 1025 30.27 855 25.25 19.1 66.4 47 7.6 45.8
10:15 1025 30.27 855 25.25 19.1 66.3 48 7.9 46.2
10:20 1025 30.27 855 25.25 18.8 65.9 47 7.5 45.4
10:25 1025 30.27 855 25.25 19.7 67.5 44 7.4 45.3
10:30 1025 30.27 855 25.25 19.6 67.4 47 8.1 46.6
10:35 1025 30.27 855 25.25 19.7 67.5 44 7.2 45
10:40 1025 30.27 855 25.25 20 68 45 7.9 46.3
10:45 1025 30.27 855 25.25 19.9 67.9 45 7.9 46.2
10:50 1025 30.27 855 25.25 20.2 68.4 44 7.6 45.7
10:55 1025 30.27 855 25.25 20.8 69.5 43 7.9 46.3
11:00 1025 30.27 854 25.22 21.1 70 42 7.9 46.3
11:05 1025 30.27 855 25.25 20.8 69.5 43 7.8 46.1
11:10 1025 30.27 855 25.25 21.3 70.3 41 7.6 45.7
11:15 1025 30.27 855 25.25 21 69.8 41 7.6 45.6
11:20 1025 30.27 855 25.25 21 69.8 40 7.1 44.8
11:25 1025 30.27 855 25.25 21.2 70.1 40 7.1 44.7
11:30 1025 30.27 854 25.22 21.2 70.2 39 6.8 44.3
11:35 1025 30.27 854 25.22 21.2 70.2 40 7.4 45.2
11:40 1025 30.27 854 25.22 21 69.8 40 7.1 44.7
11:45 1025 30.27 854 25.22 21.6 70.8 37 6.3 43.3
11:50 1025 30.27 854 25.22 22.1 71.8 36 6.4 43.5
11:55 1025 30.27 854 25.22 22.1 71.8 37 6.8 44.2
12:00 1025 30.27 854 25.22 22.2 72 36 6.5 43.7
12:05 1025 30.27 854 25.22 22.5 72.5 34 6.2 43.1
12:10 1025 30.27 854 25.22 22.8 73 38 7.7 45.9
12:15 1025 30.27 854 25.22 22.9 73.1 36 7.1 44.8
12:20 1025 30.27 854 25.22 22.4 72.3 37 7.1 44.8
12:25 1025 30.27 854 25.22 22.3 72.1 37 6.9 44.5
12:30 1025 30.27 854 25.22 22.3 72.1 37 7 44.5
12:35 1025 30.27 854 25.22 22.5 72.5 37 7.2 44.9
12:40 1025 30.27 854 25.22 22.4 72.4 37 7.1 44.8
12:45 1025 30.27 854 25.22 22.2 72 40 8.3 46.9
12:50 1025 30.27 854 25.22 21.5 70.8 40 7.7 45.8
12:55 1025 30.27 854 25.22 22.1 71.7 37 6.8 44.3
13:00 1025 30.27 854 25.22 20.9 69.5 41 7.3 45.1
13:05 1025 30.27 854 25.22 20.1 68.2 41 6.7 44
13:10 1025 30.27 854 25.22 20.2 68.3 39 6.1 43
13:15 1025 30.27 854 25.22 20 68 42 6.8 44.2
13:20 1025 30.27 854 25.22 20.1 68.2 41 6.5 43.6
13:25 1025 30.27 854 25.22 20.1 68.2 41 6.5 43.8
13:30 1025 30.27 854 25.22 20.1 68.1 39 6 42.7
13:35 1025 30.27 854 25.22 20.1 68.2 41 6.8 44.2
13:40 1025 30.27 854 25.22 20.1 68.2 40 6.4 43.5
13:45 1025 30.27 854 25.22 19.9 67.8 43 7.2 44.9
13:50 1025 30.27 854 25.22 19.3 66.8 49 8.5 47.3
13:55 1025 30.27 854 25.22 17.9 64.2 61 10.4 50.8
14:00 1025 30.27 854 25.22 16.8 62.2 62 9.6 49.3
14:05 1025 30.27 854 25.22 16.5 61.8 64 9.9 49.8
14:10 1025 30.27 854 25.22 16.6 61.9 63 9.7 49.5
14:15 1025 30.27 854 25.22 16.7 62 59 8.7 47.6
14:20 1025 30.27 854 25.22 16.8 62.3 60 9.2 48.5
14:25 1025 30.27 854 25.22 17 62.5 61 9.6 49.3
14:30 1025 30.27 854 25.22 17.3 63.1 61 9.9 49.8
14:35 1025 30.27 854 25.22 17.4 63.3 60 9.7 49.5
14:40 1025 30.27 854 25.22 17.4 63.4 59 9.5 49.1
14:45 1025 30.27 854 25.22 17.4 63.2 63 10.4 50.7
14:50 1025 30.27 854 25.22 17 62.5 66 10.6 51.1
14:55 1025 30.27 854 25.22 16.7 62 65 10.1 50.2
15:00 1025 30.27 854 25.22 16.7 62.1 66 10.4 50.8
15:05 1025 30.27 854 25.22 16.6 61.9 68 10.7 51.2
15:10 1025 30.27 854 25.22 16.5 61.6 66 10.1 50.2
15:15 1025 30.27 854 25.22 16.3 61.4 66 10 50
15:20 1025 30.27 854 25.22 16.4 61.5 67 10.2 50.4
15:25 1025 30.27 855 25.25 16.5 61.7 66 10.2 50.4
15:30 1025 30.27 854 25.22 16.5 61.7 65 10.1 50.2
15:35 1025 30.27 855 25.25 16.5 61.8 66 10.3 50.6
15:40 1025 30.27 855 25.25 16.7 62 64 10 50
15:45 1025 30.27 855 25.25 16.7 62 66 10.3 50.5
15:50 1025 30.27 855 25.25 16.7 62.1 65 10.2 50.4
15:55 1025 30.27 855 25.25 16.9 62.3 63 10 49.9
16:00 1025 30.27 855 25.25 17.1 62.7 63 10.1 50.2
16:05 1025 30.27 855 25.25 17.3 63.1 62 9.9 49.8
16:10 1025 30.27 854 25.22 17.5 63.5 60 9.7 49.5
16:15 1025 30.27 854 25.22 17.5 63.6 59 9.6 49.2
16:20 1025 30.27 854 25.22 17.7 63.9 58 9.6 49.2
16:25 1025 30.27 854 25.22 17.7 63.8 59 9.7 49.5
16:30 1025 30.27 854 25.22 17.9 64.3 57 9.4 49
16:35 1025 30.27 854 25.22 18.4 65.2 55 9.4 49
16:40 1025 30.27 854 25.22 18.8 65.8 53 9.2 48.5
16:45 1025 30.27 854 25.22 18.9 66 53 9.3 48.8
16:50 1025 30.27 854 25.22 18.6 65.5 54 9.3 48.7
16:55 1025 30.27 854 25.22 18.9 66.1 51 8.7 47.7
17:00 1025 30.27 854 25.22 19.2 66.6 53 9.5 49.2
17:05 1025 30.27 854 25.22 19.7 67.5 49 8.8 47.8
17:10 1025 30.27 854 25.22 19.7 67.4 49 8.8 47.9
17:15 1025 30.27 854 25.22 19.4 66.9 48 8.2 46.7
17:20 1025 30.27 854 25.22 19.8 67.7 46 8 46.4
17:25 1025 30.27 854 25.22 19.9 67.8 47 8.2 46.8
17:30 1025 30.27 854 25.22 19.9 67.9 46 8.3 46.9
17:35 1025 30.27 854 25.22 19.7 67.5 49 8.9 47.9
17:40 1025 30.27 854 25.22 19.5 67.2 49 8.5 47.4
17:45 1025 30.27 854 25.22 19.6 67.3 47 8 46.4
17:50 1025 30.27 854 25.22 19.7 67.5 46 8.1 46.5
17:55 1025 30.27 854 25.22 19.9 67.8 49 8.8 47.9
18:00 1025 30.27 854 25.22 19.9 67.9 47 8.3 46.9
18:05 1025 30.27 854 25.22 20.4 68.7 46 8.4 47.1
18:10 1025 30.27 854 25.22 20.4 68.6 46 8.4 47
18:15 1025 30.27 854 25.22 20.3 68.5 47 8.7 47.6
18:20 1025 30.27 854 25.22 20.2 68.3 44 7.8 46.1
18:25 1025 30.27 854 25.22 20.2 68.4 44 7.6 45.8
18:30 1025 30.27 854 25.22 20.3 68.6 43 7.4 45.3
18:35 1025 30.27 854 25.22 20.4 68.8 41 7.1 44.7
18:40 1025 30.27 854 25.22 20.2 68.4 41 6.7 44.1
18:45 1025 30.27 854 25.22 20.1 68.3 41 6.7 44
18:50 1025 30.27 854 25.22 20.2 68.3 40 6.4 43.5
18:55 1025 30.27 854 25.22 20.2 68.4 42 7.2 45
19:00 1025 30.27 854 25.22 20 68 43 7.1 44.8
19:05 1025 30.27 854 25.22 19.8 67.6 44 7.4 45.3
19:10 1025 30.27 854 25.22 19.9 67.8 43 7.2 44.9
19:15 1025 30.27 854 25.22 19.9 67.8 44 7.4 45.4
19:20 1025 30.27 854 25.22 19.9 67.7 44 7.3 45.1
19:25 1025 30.27 854 25.22 19.9 67.8 44 7.3 45.1
19:30 1025 30.27 854 25.22 19.9 67.8 46 8 46.4
19:35 1025 30.27 854 25.22 19.9 67.7 47 8.4 47.1
19:40 1025 30.27 854 25.22 19.7 67.5 48 8.7 47.6
19:45 1025 30.27 854 25.22 19.5 67 49 8.5 47.3
19:50 1025 30.27 854 25.22 19.3 66.7 51 9.2 48.5
19:55 1025 30.27 854 25.22 19.2 66.5 47 7.8 46
20:00 1025 30.27 855 25.25 19.1 66.5 48 7.9 46.2
20:05 1025 30.27 854 25.22 19.1 66.5 49 8.3 46.9
20:10 1025 30.27 854 25.22 19.1 66.3 49 8.3 46.9
20:15 1025 30.27 854 25.22 18.9 66.1 52 9.1 48.4
20:20 1025 30.27 854 25.22 18.6 65.5 56 9.9 49.8
20:25 1025 30.27 855 25.25 17.8 64 61 10.2 50.3
20:30 1025 30.27 855 25.25 17.4 63.3 63 10.3 50.5
20:35 1025 30.27 855 25.25 17.2 63 62 10 50
20:40 1026 30.3 855 25.25 17.2 63 61 9.7 49.5
20:45 1026 30.3 855 25.25 17.2 63 62 10.1 50.1
20:50 1026 30.3 855 25.25 17 62.7 63 9.9 49.9
20:55 1026 30.3 855 25.25 17 62.6 64 10.2 50.3
21:00 1026 30.3 855 25.25 16.7 62 66 10.3 50.5
21:05 1026 30.3 855 25.25 16.5 61.7 66 10.1 50.2
21:10 1026 30.3 855 25.25 16.4 61.6 66 10.1 50.2
21:15 1026 30.3 855 25.25 16.3 61.3 66 10 50
21:20 1026 30.3 855 25.25 16 60.8 65 9.5 49.1
21:25 1026 30.3 855 25.25 16 60.7 64 9.3 48.8
21:30 1026 30.3 856 25.28 15.9 60.7 66 9.6 49.2
21:35 1026 30.3 856 25.28 15.9 60.7 65 9.4 48.8
21:40 1027 30.33 856 25.28 16 60.9 65 9.5 49
21:45 1027 30.33 856 25.28 16.1 60.9 63 9.1 48.4
21:50 1027 30.33 856 25.28 16 60.8 64 9.2 48.6
21:55 1027 30.33 856 25.28 15.9 60.7 65 9.4 48.9
22:00 1027 30.33 856 25.28 15.8 60.5 66 9.5 49.1
22:05 1027 30.33 856 25.28 15.7 60.3 66 9.5 49.1
22:10 1027 30.33 856 25.28 15.7 60.2 66 9.5 49.1
22:15 1027 30.33 856 25.28 15.6 60.1 67 9.5 49.1
22:20 1027 30.33 856 25.28 15.5 59.9 68 9.6 49.3
22:25 1027 30.33 856 25.28 15.1 59.2 69 9.6 49.4
22:30 1027 30.33 856 25.28 14.8 58.6 70 9.5 49.1
22:35 1027 30.33 856 25.28 14.6 58.3 69 9.1 48.3
22:40 1027 30.33 856 25.28 15 59 69 9.4 48.9
22:45 1027 30.33 856 25.28 15 59 68 9.3 48.7
22:50 1027 30.33 856 25.28 15 59.1 68 9.3 48.7
22:55 1027 30.33 856 25.28 14.6 58.3 72 9.6 49.2
23:00 1027 30.33 856 25.28 14 57.2 72 9.1 48.4
23:05 1027 30.33 856 25.28 14.1 57.3 72 9.1 48.3
23:10 1027 30.33 856 25.28 14 57.1 72 9.1 48.3
23:15 1027 30.33 856 25.28 13.9 56.9 74 9.3 48.7
23:20 1027 30.33 856 25.28 13.6 56.5 74 9 48.2
23:25 1027 30.33 856 25.28 13.5 56.3 74 9.1 48.3
23:30 1027 30.33 856 25.28 13.3 56 74 8.8 47.8
23:35 1027 30.33 856 25.28 13.3 56 74 8.8 47.8
23:40 1027 30.33 856 25.28 13.4 56.1 73 8.6 47.6
23:45 1027 30.33 856 25.28 13.6 56.4 72 8.7 47.6
23:50 1027 30.33 856 25.28 13.5 56.3 73 8.8 47.8
23:55 1027 30.33 856 25.28 13.3 55.9 73 8.5 47.3
24:00 1027 30.33 856 25.28 13.3 55.9 72 8.4 47.2